Página principal
METAR-TAF:

METAR-TAF

Aeroportos :

Aeroporto de Copenhaga

Copenhaga, Dinamarca

latitude: 55-37N, longitude: 012-39E, altura: 5 m

Observação actual do tempo

O boletim foi feito há 16 minutos, às 16:20 UTC
Vento 7 kt de sul
Temperatura 16°C
Humidade 88%
Pressão 1016 hPa
Visibilidade 10 km ou mais

METAR: EKCH 211620Z AUTO 18007KT 9999 NCD 16/14 Q1016 NOSIG

Hora: 18:36 (16:36 UTC)

Previsão

O boletim foi feito há 5 horas e 30 minutos, às 11:06 UTC
Previsão válida de 21 às 12 UTC a 22 às 12 UTC
Vento 8 kt de sul
Visibilidade 10 km ou mais
Nuvens dispersasa uma altura de 1200 ft
Probabilidade 40%
de 21 às 22 UTC a 22 às 07 UTC
Visibilidade: 0800 m
a uma altura de 200 ft
bancos de nevoeiro

TAF: EKCH 211106Z 2112/2212 18008KT 9999 SCT012 PROB40 2122/2207 0800 BCFG VV002

Observações e previsões do tempo de mais de 4000 aeroportos (mensagens METAR e TAF).

As estações disponíveis são os pontos amarelos e vermelhos sobre o mapa.

Mova o rato sobre o mapa para ver o nome da estação.

Depois clique no ponto para visualizar as observações e previsões meteorológicas.

Para alterar o mapa : clique nos botões verdes com uma cruz preta para aumentar o zoom; no botão verde com uma pitada de zoom; ou nas setas verdes para mapas adjacentes.


METAR-TAF: